sensor_id;sensor_type;location;lat;lon;timestamp;P1;durP1;ratioP1;P2;durP2;ratioP2
67065;SDS011;53978;43.846;25.952;2023-07-31T00:01:52;4.57;;;3.10;;
67065;SDS011;53978;43.846;25.952;2023-07-31T00:04:17;5.60;;;3.00;;
67065;SDS011;53978;43.846;25.952;2023-07-31T00:06:43;4.38;;;2.88;;
67065;SDS011;53978;43.846;25.952;2023-07-31T00:09:08;4.10;;;2.45;;
67065;SDS011;53978;43.846;25.952;2023-07-31T00:11:34;2.60;;;2.25;;
67065;SDS011;53978;43.846;25.952;2023-07-31T00:13:59;3.65;;;2.40;;
67065;SDS011;53978;43.846;25.952;2023-07-31T00:16:24;3.60;;;2.28;;
67065;SDS011;53978;43.846;25.952;2023-07-31T00:18:50;2.33;;;2.13;;
67065;SDS011;53978;43.846;25.952;2023-07-31T00:21:15;2.40;;;2.00;;
67065;SDS011;53978;43.846;25.952;2023-07-31T00:23:41;2.40;;;2.20;;
67065;SDS011;53978;43.846;25.952;2023-07-31T00:26:06;2.47;;;2.03;;
67065;SDS011;53978;43.846;25.952;2023-07-31T00:28:31;2.22;;;2.00;;
67065;SDS011;53978;43.846;25.952;2023-07-31T00:30:57;2.10;;;1.92;;
67065;SDS011;53978;43.846;25.952;2023-07-31T00:33:22;2.30;;;2.10;;
67065;SDS011;53978;43.846;25.952;2023-07-31T00:35:48;5.68;;;2.08;;
67065;SDS011;53978;43.846;25.952;2023-07-31T00:38:15;3.67;;;1.95;;
67065;SDS011;53978;43.846;25.952;2023-07-31T00:40:40;1.80;;;1.70;;
67065;SDS011;53978;43.846;25.952;2023-07-31T00:43:05;2.20;;;1.80;;
67065;SDS011;53978;43.846;25.952;2023-07-31T00:45:31;1.60;;;1.50;;
67065;SDS011;53978;43.846;25.952;2023-07-31T00:47:56;5.43;;;1.67;;
67065;SDS011;53978;43.846;25.952;2023-07-31T00:50:23;3.35;;;1.70;;
67065;SDS011;53978;43.846;25.952;2023-07-31T00:52:49;7.13;;;1.83;;
67065;SDS011;53978;43.846;25.952;2023-07-31T00:55:15;2.85;;;2.00;;
67065;SDS011;53978;43.846;25.952;2023-07-31T00:57:41;2.22;;;1.80;;
67065;SDS011;53978;43.846;25.952;2023-07-31T01:00:08;2.38;;;1.80;;
67065;SDS011;53978;43.846;25.952;2023-07-31T01:02:34;5.15;;;1.83;;
67065;SDS011;53978;43.846;25.952;2023-07-31T01:05:00;2.00;;;1.80;;
67065;SDS011;53978;43.846;25.952;2023-07-31T01:07:28;1.80;;;1.70;;
67065;SDS011;53978;43.846;25.952;2023-07-31T01:10:09;2.63;;;1.80;;
67065;SDS011;53978;43.846;25.952;2023-07-31T01:12:41;2.50;;;1.88;;
67065;SDS011;53978;43.846;25.952;2023-07-31T01:15:07;3.85;;;1.60;;
67065;SDS011;53978;43.846;25.952;2023-07-31T01:17:39;2.42;;;1.70;;
67065;SDS011;53978;43.846;25.952;2023-07-31T01:27:50;2.17;;;1.63;;
67065;SDS011;53978;43.846;25.952;2023-07-31T01:30:21;1.65;;;1.45;;
67065;SDS011;53978;43.846;25.952;2023-07-31T01:32:50;8.52;;;1.50;;
67065;SDS011;53978;43.846;25.952;2023-07-31T01:35:18;4.13;;;1.73;;
67065;SDS011;53978;43.846;25.952;2023-07-31T01:37:43;3.85;;;2.10;;
67065;SDS011;53978;43.846;25.952;2023-07-31T01:40:10;1.92;;;1.73;;
67065;SDS011;53978;43.846;25.952;2023-07-31T01:42:35;2.35;;;1.77;;
67065;SDS011;53978;43.846;25.952;2023-07-31T01:45:00;2.45;;;2.00;;
67065;SDS011;53978;43.846;25.952;2023-07-31T01:47:26;2.72;;;2.40;;
67065;SDS011;53978;43.846;25.952;2023-07-31T01:49:51;4.32;;;2.00;;
67065;SDS011;53978;43.846;25.952;2023-07-31T01:52:17;3.47;;;2.50;;
67065;SDS011;53978;43.846;25.952;2023-07-31T01:54:42;5.10;;;2.20;;
67065;SDS011;53978;43.846;25.952;2023-07-31T01:57:07;5.15;;;2.63;;
67065;SDS011;53978;43.846;25.952;2023-07-31T01:59:33;8.73;;;2.83;;
67065;SDS011;53978;43.846;25.952;2023-07-31T02:01:58;4.47;;;2.78;;
67065;SDS011;53978;43.846;25.952;2023-07-31T02:04:23;3.38;;;2.78;;
67065;SDS011;53978;43.846;25.952;2023-07-31T02:06:49;4.00;;;2.50;;
67065;SDS011;53978;43.846;25.952;2023-07-31T02:09:14;6.38;;;3.10;;
67065;SDS011;53978;43.846;25.952;2023-07-31T02:11:40;4.75;;;3.15;;
67065;SDS011;53978;43.846;25.952;2023-07-31T02:14:05;4.68;;;2.97;;
67065;SDS011;53978;43.846;25.952;2023-07-31T02:16:30;3.97;;;2.90;;
67065;SDS011;53978;43.846;25.952;2023-07-31T02:18:56;8.45;;;3.03;;
67065;SDS011;53978;43.846;25.952;2023-07-31T02:21:21;4.57;;;2.97;;
67065;SDS011;53978;43.846;25.952;2023-07-31T02:23:47;3.33;;;3.00;;
67065;SDS011;53978;43.846;25.952;2023-07-31T02:26:12;3.17;;;2.88;;
67065;SDS011;53978;43.846;25.952;2023-07-31T02:28:37;4.07;;;2.80;;
67065;SDS011;53978;43.846;25.952;2023-07-31T02:31:03;4.50;;;3.05;;
67065;SDS011;53978;43.846;25.952;2023-07-31T02:33:28;4.20;;;2.75;;
67065;SDS011;53978;43.846;25.952;2023-07-31T02:35:54;5.55;;;2.80;;
67065;SDS011;53978;43.846;25.952;2023-07-31T02:38:19;4.65;;;2.83;;
67065;SDS011;53978;43.846;25.952;2023-07-31T02:40:44;4.40;;;2.83;;
67065;SDS011;53978;43.846;25.952;2023-07-31T02:43:10;3.72;;;3.08;;
67065;SDS011;53978;43.846;25.952;2023-07-31T02:45:35;5.38;;;3.00;;
67065;SDS011;53978;43.846;25.952;2023-07-31T02:48:01;3.38;;;2.85;;
67065;SDS011;53978;43.846;25.952;2023-07-31T02:50:26;3.40;;;3.10;;
67065;SDS011;53978;43.846;25.952;2023-07-31T02:52:52;4.05;;;3.15;;
67065;SDS011;53978;43.846;25.952;2023-07-31T02:55:18;5.82;;;3.70;;
67065;SDS011;53978;43.846;25.952;2023-07-31T02:57:43;3.60;;;3.20;;
67065;SDS011;53978;43.846;25.952;2023-07-31T03:00:09;3.65;;;3.30;;
67065;SDS011;53978;43.846;25.952;2023-07-31T03:02:34;3.90;;;3.47;;
67065;SDS011;53978;43.846;25.952;2023-07-31T03:05:00;5.28;;;3.80;;
67065;SDS011;53978;43.846;25.952;2023-07-31T03:07:25;3.55;;;3.25;;
67065;SDS011;53978;43.846;25.952;2023-07-31T03:09:51;3.42;;;3.13;;
67065;SDS011;53978;43.846;25.952;2023-07-31T03:12:16;3.47;;;3.17;;
67065;SDS011;53978;43.846;25.952;2023-07-31T03:14:41;4.50;;;3.63;;
67065;SDS011;53978;43.846;25.952;2023-07-31T03:17:07;4.03;;;3.58;;
67065;SDS011;53978;43.846;25.952;2023-07-31T03:19:32;5.20;;;3.65;;
67065;SDS011;53978;43.846;25.952;2023-07-31T03:22:01;4.10;;;3.70;;
67065;SDS011;53978;43.846;25.952;2023-07-31T03:24:26;5.35;;;3.63;;
67065;SDS011;53978;43.846;25.952;2023-07-31T03:26:53;4.22;;;3.78;;
67065;SDS011;53978;43.846;25.952;2023-07-31T03:29:18;4.25;;;3.85;;
67065;SDS011;53978;43.846;25.952;2023-07-31T03:31:44;3.95;;;3.58;;
67065;SDS011;53978;43.846;25.952;2023-07-31T03:34:09;4.18;;;3.60;;
67065;SDS011;53978;43.846;25.952;2023-07-31T03:36:34;5.63;;;4.15;;
67065;SDS011;53978;43.846;25.952;2023-07-31T03:39:00;5.15;;;3.97;;
67065;SDS011;53978;43.846;25.952;2023-07-31T03:41:25;3.97;;;3.53;;
67065;SDS011;53978;43.846;25.952;2023-07-31T03:43:51;4.07;;;3.67;;
67065;SDS011;53978;43.846;25.952;2023-07-31T03:46:21;5.28;;;3.70;;
67065;SDS011;53978;43.846;25.952;2023-07-31T03:48:47;4.05;;;3.65;;
67065;SDS011;53978;43.846;25.952;2023-07-31T03:51:13;4.03;;;3.63;;
67065;SDS011;53978;43.846;25.952;2023-07-31T03:53:38;4.40;;;3.80;;
67065;SDS011;53978;43.846;25.952;2023-07-31T03:56:04;4.13;;;3.72;;
67065;SDS011;53978;43.846;25.952;2023-07-31T03:58:29;4.88;;;4.38;;
67065;SDS011;53978;43.846;25.952;2023-07-31T04:00:54;4.40;;;3.97;;
67065;SDS011;53978;43.846;25.952;2023-07-31T04:03:20;4.07;;;3.58;;
67065;SDS011;53978;43.846;25.952;2023-07-31T04:05:45;4.93;;;4.30;;
67065;SDS011;53978;43.846;25.952;2023-07-31T04:08:11;5.05;;;4.50;;
67065;SDS011;53978;43.846;25.952;2023-07-31T04:10:36;4.28;;;3.88;;
67065;SDS011;53978;43.846;25.952;2023-07-31T04:13:01;4.35;;;3.95;;
67065;SDS011;53978;43.846;25.952;2023-07-31T04:15:27;4.20;;;3.80;;
67065;SDS011;53978;43.846;25.952;2023-07-31T04:17:52;4.35;;;3.95;;
67065;SDS011;53978;43.846;25.952;2023-07-31T04:20:18;3.90;;;3.60;;
67065;SDS011;53978;43.846;25.952;2023-07-31T04:22:43;4.93;;;4.43;;
67065;SDS011;53978;43.846;25.952;2023-07-31T04:25:09;6.78;;;3.92;;
67065;SDS011;53978;43.846;25.952;2023-07-31T04:27:34;5.25;;;4.25;;
67065;SDS011;53978;43.846;25.952;2023-07-31T04:29:59;5.53;;;4.10;;
67065;SDS011;53978;43.846;25.952;2023-07-31T04:32:25;7.57;;;4.65;;
67065;SDS011;53978;43.846;25.952;2023-07-31T04:34:50;6.95;;;4.80;;
67065;SDS011;53978;43.846;25.952;2023-07-31T04:37:16;7.75;;;5.53;;
67065;SDS011;53978;43.846;25.952;2023-07-31T04:39:41;8.75;;;4.50;;
67065;SDS011;53978;43.846;25.952;2023-07-31T04:42:06;5.05;;;4.45;;
67065;SDS011;53978;43.846;25.952;2023-07-31T04:44:32;7.63;;;4.88;;
67065;SDS011;53978;43.846;25.952;2023-07-31T04:46:57;5.10;;;4.55;;
67065;SDS011;53978;43.846;25.952;2023-07-31T04:49:23;5.50;;;4.72;;
67065;SDS011;53978;43.846;25.952;2023-07-31T04:51:48;4.80;;;4.30;;
67065;SDS011;53978;43.846;25.952;2023-07-31T04:54:14;6.90;;;4.80;;
67065;SDS011;53978;43.846;25.952;2023-07-31T04:56:40;5.95;;;4.78;;
67065;SDS011;53978;43.846;25.952;2023-07-31T04:59:06;9.02;;;5.85;;
67065;SDS011;53978;43.846;25.952;2023-07-31T05:01:31;6.00;;;5.18;;
67065;SDS011;53978;43.846;25.952;2023-07-31T05:03:57;5.97;;;4.60;;
67065;SDS011;53978;43.846;25.952;2023-07-31T05:06:22;7.57;;;4.90;;
67065;SDS011;53978;43.846;25.952;2023-07-31T05:08:47;4.93;;;4.47;;
67065;SDS011;53978;43.846;25.952;2023-07-31T05:11:13;6.40;;;4.53;;
67065;SDS011;53978;43.846;25.952;2023-07-31T05:13:38;5.47;;;4.63;;
67065;SDS011;53978;43.846;25.952;2023-07-31T05:16:04;7.53;;;5.95;;
67065;SDS011;53978;43.846;25.952;2023-07-31T05:18:29;6.45;;;5.68;;
67065;SDS011;53978;43.846;25.952;2023-07-31T05:20:55;6.80;;;5.60;;
67065;SDS011;53978;43.846;25.952;2023-07-31T05:23:20;6.22;;;5.35;;
67065;SDS011;53978;43.846;25.952;2023-07-31T05:25:45;7.68;;;5.30;;
67065;SDS011;53978;43.846;25.952;2023-07-31T05:28:11;6.32;;;5.35;;
67065;SDS011;53978;43.846;25.952;2023-07-31T05:30:37;7.75;;;5.65;;
67065;SDS011;53978;43.846;25.952;2023-07-31T05:33:03;7.57;;;5.72;;
67065;SDS011;53978;43.846;25.952;2023-07-31T05:35:28;12.70;;;5.47;;
67065;SDS011;53978;43.846;25.952;2023-07-31T05:37:53;6.25;;;5.60;;
67065;SDS011;53978;43.846;25.952;2023-07-31T05:40:19;14.20;;;5.05;;
67065;SDS011;53978;43.846;25.952;2023-07-31T05:42:44;5.78;;;4.88;;
67065;SDS011;53978;43.846;25.952;2023-07-31T05:45:10;6.35;;;5.22;;
67065;SDS011;53978;43.846;25.952;2023-07-31T05:47:35;4.95;;;4.45;;
67065;SDS011;53978;43.846;25.952;2023-07-31T05:50:01;5.28;;;4.75;;
67065;SDS011;53978;43.846;25.952;2023-07-31T05:52:26;12.88;;;4.20;;
67065;SDS011;53978;43.846;25.952;2023-07-31T05:54:52;7.15;;;4.53;;
67065;SDS011;53978;43.846;25.952;2023-07-31T05:57:17;4.95;;;4.55;;
67065;SDS011;53978;43.846;25.952;2023-07-31T05:59:43;13.55;;;5.00;;
67065;SDS011;53978;43.846;25.952;2023-07-31T06:02:08;9.82;;;5.35;;
67065;SDS011;53978;43.846;25.952;2023-07-31T06:04:34;6.68;;;5.10;;
67065;SDS011;53978;43.846;25.952;2023-07-31T06:06:59;5.10;;;4.60;;
67065;SDS011;53978;43.846;25.952;2023-07-31T06:09:25;4.85;;;4.25;;
67065;SDS011;53978;43.846;25.952;2023-07-31T06:11:54;5.90;;;4.22;;
67065;SDS011;53978;43.846;25.952;2023-07-31T06:14:19;6.95;;;4.32;;
67065;SDS011;53978;43.846;25.952;2023-07-31T06:16:44;4.90;;;4.13;;
67065;SDS011;53978;43.846;25.952;2023-07-31T06:19:10;5.35;;;4.55;;
67065;SDS011;53978;43.846;25.952;2023-07-31T06:21:36;4.78;;;4.38;;
67065;SDS011;53978;43.846;25.952;2023-07-31T06:24:05;5.60;;;4.55;;
67065;SDS011;53978;43.846;25.952;2023-07-31T06:26:30;5.95;;;5.05;;
67065;SDS011;53978;43.846;25.952;2023-07-31T06:28:56;7.07;;;4.70;;
67065;SDS011;53978;43.846;25.952;2023-07-31T06:31:21;5.57;;;4.80;;
67065;SDS011;53978;43.846;25.952;2023-07-31T06:33:48;7.55;;;4.60;;
67065;SDS011;53978;43.846;25.952;2023-07-31T06:36:14;6.05;;;5.00;;
67065;SDS011;53978;43.846;25.952;2023-07-31T06:38:40;6.72;;;4.90;;
67065;SDS011;53978;43.846;25.952;2023-07-31T06:41:05;5.05;;;4.65;;
67065;SDS011;53978;43.846;25.952;2023-07-31T06:43:30;6.10;;;5.50;;
67065;SDS011;53978;43.846;25.952;2023-07-31T06:45:56;6.60;;;5.47;;
67065;SDS011;53978;43.846;25.952;2023-07-31T06:48:21;6.75;;;5.13;;
67065;SDS011;53978;43.846;25.952;2023-07-31T06:50:47;5.03;;;4.35;;
67065;SDS011;53978;43.846;25.952;2023-07-31T06:53:12;5.75;;;4.25;;
67065;SDS011;53978;43.846;25.952;2023-07-31T06:55:37;4.95;;;4.45;;
67065;SDS011;53978;43.846;25.952;2023-07-31T06:58:03;4.30;;;3.90;;
67065;SDS011;53978;43.846;25.952;2023-07-31T07:00:28;4.90;;;4.30;;
67065;SDS011;53978;43.846;25.952;2023-07-31T07:02:54;5.28;;;4.35;;
67065;SDS011;53978;43.846;25.952;2023-07-31T07:05:19;4.75;;;4.22;;
67065;SDS011;53978;43.846;25.952;2023-07-31T07:07:45;4.20;;;3.80;;
67065;SDS011;53978;43.846;25.952;2023-07-31T07:10:10;4.85;;;4.22;;
67065;SDS011;53978;43.846;25.952;2023-07-31T07:12:36;5.22;;;4.28;;
67065;SDS011;53978;43.846;25.952;2023-07-31T07:15:02;4.55;;;4.00;;
67065;SDS011;53978;43.846;25.952;2023-07-31T07:17:28;4.50;;;4.10;;
67065;SDS011;53978;43.846;25.952;2023-07-31T07:19:56;5.38;;;3.95;;
67065;SDS011;53978;43.846;25.952;2023-07-31T07:22:22;4.25;;;3.85;;
67065;SDS011;53978;43.846;25.952;2023-07-31T07:24:47;4.55;;;3.92;;
67065;SDS011;53978;43.846;25.952;2023-07-31T07:27:13;5.70;;;5.10;;
67065;SDS011;53978;43.846;25.952;2023-07-31T07:29:38;4.50;;;4.10;;
67065;SDS011;53978;43.846;25.952;2023-07-31T07:32:04;4.38;;;3.97;;
67065;SDS011;53978;43.846;25.952;2023-07-31T07:34:30;10.35;;;3.90;;
67065;SDS011;53978;43.846;25.952;2023-07-31T07:36:55;4.63;;;4.20;;
67065;SDS011;53978;43.846;25.952;2023-07-31T07:39:21;5.35;;;4.50;;
67065;SDS011;53978;43.846;25.952;2023-07-31T07:41:46;5.38;;;4.65;;
67065;SDS011;53978;43.846;25.952;2023-07-31T07:44:12;4.90;;;4.50;;
67065;SDS011;53978;43.846;25.952;2023-07-31T07:46:38;6.00;;;5.30;;
67065;SDS011;53978;43.846;25.952;2023-07-31T07:49:04;5.97;;;4.85;;
67065;SDS011;53978;43.846;25.952;2023-07-31T07:51:29;5.85;;;5.03;;
67065;SDS011;53978;43.846;25.952;2023-07-31T07:53:56;4.65;;;4.25;;
67065;SDS011;53978;43.846;25.952;2023-07-31T07:56:23;4.88;;;4.43;;
67065;SDS011;53978;43.846;25.952;2023-07-31T07:58:49;5.72;;;4.22;;
67065;SDS011;53978;43.846;25.952;2023-07-31T08:01:15;5.30;;;4.32;;
67065;SDS011;53978;43.846;25.952;2023-07-31T08:03:40;4.70;;;4.28;;
67065;SDS011;53978;43.846;25.952;2023-07-31T08:06:06;4.22;;;3.83;;
67065;SDS011;53978;43.846;25.952;2023-07-31T08:08:34;4.72;;;4.05;;
67065;SDS011;53978;43.846;25.952;2023-07-31T08:10:59;5.35;;;4.40;;
67065;SDS011;53978;43.846;25.952;2023-07-31T08:13:24;5.18;;;4.00;;
67065;SDS011;53978;43.846;25.952;2023-07-31T08:15:50;4.22;;;3.80;;
67065;SDS011;53978;43.846;25.952;2023-07-31T08:18:15;5.47;;;4.10;;
67065;SDS011;53978;43.846;25.952;2023-07-31T08:20:42;4.85;;;4.03;;
67065;SDS011;53978;43.846;25.952;2023-07-31T08:23:07;4.75;;;4.15;;
67065;SDS011;53978;43.846;25.952;2023-07-31T08:25:34;4.50;;;4.10;;
67065;SDS011;53978;43.846;25.952;2023-07-31T08:28:00;4.63;;;3.90;;
67065;SDS011;53978;43.846;25.952;2023-07-31T08:30:26;10.40;;;7.80;;
67065;SDS011;53978;43.846;25.952;2023-07-31T08:32:52;11.32;;;7.60;;
67065;SDS011;53978;43.846;25.952;2023-07-31T08:35:17;6.25;;;5.03;;
67065;SDS011;53978;43.846;25.952;2023-07-31T08:37:43;4.90;;;4.40;;
67065;SDS011;53978;43.846;25.952;2023-07-31T08:40:08;5.30;;;4.80;;
67065;SDS011;53978;43.846;25.952;2023-07-31T08:42:34;8.13;;;5.30;;
67065;SDS011;53978;43.846;25.952;2023-07-31T08:45:08;6.40;;;4.90;;
67065;SDS011;53978;43.846;25.952;2023-07-31T08:47:34;4.25;;;3.88;;
67065;SDS011;53978;43.846;25.952;2023-07-31T08:50:00;5.50;;;3.83;;
67065;SDS011;53978;43.846;25.952;2023-07-31T08:52:25;4.57;;;3.67;;
67065;SDS011;53978;43.846;25.952;2023-07-31T08:54:51;4.32;;;3.92;;
67065;SDS011;53978;43.846;25.952;2023-07-31T08:57:16;4.13;;;3.42;;
67065;SDS011;53978;43.846;25.952;2023-07-31T08:59:41;4.03;;;3.60;;
67065;SDS011;53978;43.846;25.952;2023-07-31T09:02:08;7.00;;;4.10;;
67065;SDS011;53978;43.846;25.952;2023-07-31T09:04:34;5.05;;;4.25;;
67065;SDS011;53978;43.846;25.952;2023-07-31T09:07:00;5.18;;;3.92;;
67065;SDS011;53978;43.846;25.952;2023-07-31T09:09:29;8.38;;;3.90;;
67065;SDS011;53978;43.846;25.952;2023-07-31T09:11:55;7.68;;;3.92;;
67065;SDS011;53978;43.846;25.952;2023-07-31T09:14:22;6.43;;;3.72;;
67065;SDS011;53978;43.846;25.952;2023-07-31T09:16:53;3.75;;;3.45;;
67065;SDS011;53978;43.846;25.952;2023-07-31T09:19:27;5.60;;;3.40;;
67065;SDS011;53978;43.846;25.952;2023-07-31T09:21:54;5.72;;;3.95;;
67065;SDS011;53978;43.846;25.952;2023-07-31T09:24:27;5.68;;;3.53;;
67065;SDS011;53978;43.846;25.952;2023-07-31T09:26:54;9.07;;;4.00;;
67065;SDS011;53978;43.846;25.952;2023-07-31T09:29:21;8.50;;;3.85;;
67065;SDS011;53978;43.846;25.952;2023-07-31T09:31:47;4.70;;;4.30;;
67065;SDS011;53978;43.846;25.952;2023-07-31T09:34:12;5.25;;;3.80;;
67065;SDS011;53978;43.846;25.952;2023-07-31T09:36:44;8.68;;;6.15;;
67065;SDS011;53978;43.846;25.952;2023-07-31T09:39:13;7.22;;;4.82;;
67065;SDS011;53978;43.846;25.952;2023-07-31T09:41:46;6.88;;;4.63;;
67065;SDS011;53978;43.846;25.952;2023-07-31T09:44:16;4.85;;;4.10;;
67065;SDS011;53978;43.846;25.952;2023-07-31T09:46:41;6.70;;;4.32;;
67065;SDS011;53978;43.846;25.952;2023-07-31T09:49:11;5.40;;;4.82;;
67065;SDS011;53978;43.846;25.952;2023-07-31T09:51:39;6.22;;;4.75;;
67065;SDS011;53978;43.846;25.952;2023-07-31T09:54:12;7.13;;;4.88;;
67065;SDS011;53978;43.846;25.952;2023-07-31T09:56:48;6.90;;;5.25;;
67065;SDS011;53978;43.846;25.952;2023-07-31T09:59:18;7.35;;;4.60;;
67065;SDS011;53978;43.846;25.952;2023-07-31T10:01:44;5.55;;;4.72;;
67065;SDS011;53978;43.846;25.952;2023-07-31T10:04:11;5.47;;;4.95;;
67065;SDS011;53978;43.846;25.952;2023-07-31T10:06:38;6.63;;;4.90;;
67065;SDS011;53978;43.846;25.952;2023-07-31T10:09:08;6.47;;;5.20;;
67065;SDS011;53978;43.846;25.952;2023-07-31T10:11:41;11.52;;;5.10;;
67065;SDS011;53978;43.846;25.952;2023-07-31T10:14:09;5.80;;;5.03;;
67065;SDS011;53978;43.846;25.952;2023-07-31T10:16:34;8.55;;;5.20;;
67065;SDS011;53978;43.846;25.952;2023-07-31T10:19:00;10.18;;;6.05;;
67065;SDS011;53978;43.846;25.952;2023-07-31T10:21:26;13.05;;;6.40;;
67065;SDS011;53978;43.846;25.952;2023-07-31T10:23:52;10.32;;;6.53;;
67065;SDS011;53978;43.846;25.952;2023-07-31T10:26:18;8.55;;;6.25;;
67065;SDS011;53978;43.846;25.952;2023-07-31T10:28:44;11.05;;;6.72;;
67065;SDS011;53978;43.846;25.952;2023-07-31T10:31:11;11.93;;;6.55;;
67065;SDS011;53978;43.846;25.952;2023-07-31T10:33:36;8.40;;;5.75;;
67065;SDS011;53978;43.846;25.952;2023-07-31T10:36:12;11.65;;;6.28;;
67065;SDS011;53978;43.846;25.952;2023-07-31T10:38:38;5.88;;;5.25;;
67065;SDS011;53978;43.846;25.952;2023-07-31T10:41:10;13.30;;;6.22;;
67065;SDS011;53978;43.846;25.952;2023-07-31T10:43:38;9.10;;;5.63;;
67065;SDS011;53978;43.846;25.952;2023-07-31T10:46:07;7.18;;;5.22;;
67065;SDS011;53978;43.846;25.952;2023-07-31T10:48:34;7.70;;;5.60;;
67065;SDS011;53978;43.846;25.952;2023-07-31T10:51:02;9.43;;;5.57;;
67065;SDS011;53978;43.846;25.952;2023-07-31T10:53:35;7.85;;;5.82;;
67065;SDS011;53978;43.846;25.952;2023-07-31T10:56:01;9.73;;;6.22;;
67065;SDS011;53978;43.846;25.952;2023-07-31T10:58:30;10.25;;;5.72;;
67065;SDS011;53978;43.846;25.952;2023-07-31T11:00:59;7.72;;;5.20;;
67065;SDS011;53978;43.846;25.952;2023-07-31T11:03:26;12.05;;;5.78;;
67065;SDS011;53978;43.846;25.952;2023-07-31T11:06:05;8.68;;;5.28;;
67065;SDS011;53978;43.846;25.952;2023-07-31T11:08:35;7.57;;;5.50;;
67065;SDS011;53978;43.846;25.952;2023-07-31T11:13:27;6.35;;;4.93;;
67065;SDS011;53978;43.846;25.952;2023-07-31T11:15:56;7.78;;;5.43;;
67065;SDS011;53978;43.846;25.952;2023-07-31T11:18:21;6.13;;;5.53;;
67065;SDS011;53978;43.846;25.952;2023-07-31T11:20:47;9.20;;;5.65;;
67065;SDS011;53978;43.846;25.952;2023-07-31T11:23:12;8.38;;;5.45;;
67065;SDS011;53978;43.846;25.952;2023-07-31T11:25:41;8.80;;;5.63;;
67065;SDS011;53978;43.846;25.952;2023-07-31T11:28:08;6.20;;;5.38;;
67065;SDS011;53978;43.846;25.952;2023-07-31T11:30:35;6.80;;;4.80;;
67065;SDS011;53978;43.846;25.952;2023-07-31T11:33:01;9.73;;;5.15;;
67065;SDS011;53978;43.846;25.952;2023-07-31T11:35:28;6.72;;;5.32;;
67065;SDS011;53978;43.846;25.952;2023-07-31T11:37:55;5.85;;;4.95;;
67065;SDS011;53978;43.846;25.952;2023-07-31T11:40:20;8.48;;;5.47;;
67065;SDS011;53978;43.846;25.952;2023-07-31T11:42:46;5.82;;;5.20;;
67065;SDS011;53978;43.846;25.952;2023-07-31T11:45:11;6.22;;;5.28;;
67065;SDS011;53978;43.846;25.952;2023-07-31T11:47:37;6.57;;;4.75;;
67065;SDS011;53978;43.846;25.952;2023-07-31T11:50:06;5.80;;;4.93;;
67065;SDS011;53978;43.846;25.952;2023-07-31T11:52:37;5.80;;;5.20;;
67065;SDS011;53978;43.846;25.952;2023-07-31T11:55:05;8.50;;;5.05;;
67065;SDS011;53978;43.846;25.952;2023-07-31T11:57:34;8.07;;;4.57;;
67065;SDS011;53978;43.846;25.952;2023-07-31T12:00:01;5.63;;;4.80;;
67065;SDS011;53978;43.846;25.952;2023-07-31T12:02:27;6.90;;;5.43;;
67065;SDS011;53978;43.846;25.952;2023-07-31T12:04:53;5.20;;;4.75;;
67065;SDS011;53978;43.846;25.952;2023-07-31T12:07:18;10.60;;;4.93;;
67065;SDS011;53978;43.846;25.952;2023-07-31T12:09:52;5.10;;;4.60;;
67065;SDS011;53978;43.846;25.952;2023-07-31T12:12:22;5.57;;;5.07;;
67065;SDS011;53978;43.846;25.952;2023-07-31T12:14:48;5.25;;;4.78;;
67065;SDS011;53978;43.846;25.952;2023-07-31T12:17:13;5.55;;;4.68;;
67065;SDS011;53978;43.846;25.952;2023-07-31T12:19:39;7.95;;;4.72;;
67065;SDS011;53978;43.846;25.952;2023-07-31T12:22:11;5.80;;;5.15;;
67065;SDS011;53978;43.846;25.952;2023-07-31T12:24:37;5.97;;;4.80;;
67065;SDS011;53978;43.846;25.952;2023-07-31T12:27:11;5.55;;;4.28;;
67065;SDS011;53978;43.846;25.952;2023-07-31T12:29:38;7.03;;;4.60;;
67065;SDS011;53978;43.846;25.952;2023-07-31T12:32:04;5.22;;;4.57;;
67065;SDS011;53978;43.846;25.952;2023-07-31T12:34:43;5.55;;;4.63;;
67065;SDS011;53978;43.846;25.952;2023-07-31T12:37:08;4.80;;;4.40;;
67065;SDS011;53978;43.846;25.952;2023-07-31T12:39:34;9.63;;;4.57;;
67065;SDS011;53978;43.846;25.952;2023-07-31T12:41:59;4.88;;;4.00;;
67065;SDS011;53978;43.846;25.952;2023-07-31T12:44:25;5.35;;;4.38;;
67065;SDS011;53978;43.846;25.952;2023-07-31T12:46:50;5.15;;;4.47;;
67065;SDS011;53978;43.846;25.952;2023-07-31T12:49:16;5.65;;;4.65;;
67065;SDS011;53978;43.846;25.952;2023-07-31T12:51:41;4.57;;;4.18;;
67065;SDS011;53978;43.846;25.952;2023-07-31T12:54:06;4.88;;;4.25;;
67065;SDS011;53978;43.846;25.952;2023-07-31T12:56:32;4.60;;;4.20;;
67065;SDS011;53978;43.846;25.952;2023-07-31T12:58:57;4.10;;;3.70;;
67065;SDS011;53978;43.846;25.952;2023-07-31T13:01:23;5.00;;;3.95;;
67065;SDS011;53978;43.846;25.952;2023-07-31T13:03:48;4.43;;;3.97;;
67065;SDS011;53978;43.846;25.952;2023-07-31T13:06:13;4.18;;;3.78;;
67065;SDS011;53978;43.846;25.952;2023-07-31T13:08:40;3.67;;;3.22;;
67065;SDS011;53978;43.846;25.952;2023-07-31T13:11:05;4.93;;;3.38;;
67065;SDS011;53978;43.846;25.952;2023-07-31T13:13:30;9.77;;;4.70;;
67065;SDS011;53978;43.846;25.952;2023-07-31T13:15:56;7.50;;;4.57;;
67065;SDS011;53978;43.846;25.952;2023-07-31T13:18:21;6.63;;;3.83;;
67065;SDS011;53978;43.846;25.952;2023-07-31T13:20:47;6.68;;;3.22;;
67065;SDS011;53978;43.846;25.952;2023-07-31T13:23:12;5.65;;;3.55;;
67065;SDS011;53978;43.846;25.952;2023-07-31T13:25:37;3.97;;;3.58;;
67065;SDS011;53978;43.846;25.952;2023-07-31T13:28:03;3.15;;;2.85;;
67065;SDS011;53978;43.846;25.952;2023-07-31T13:30:28;3.05;;;2.75;;
67065;SDS011;53978;43.846;25.952;2023-07-31T13:32:54;3.47;;;3.17;;
67065;SDS011;53978;43.846;25.952;2023-07-31T13:35:19;7.55;;;3.33;;
67065;SDS011;53978;43.846;25.952;2023-07-31T13:37:45;5.07;;;3.60;;
67065;SDS011;53978;43.846;25.952;2023-07-31T13:40:10;3.50;;;3.20;;
67065;SDS011;53978;43.846;25.952;2023-07-31T13:42:36;3.70;;;3.40;;
67065;SDS011;53978;43.846;25.952;2023-07-31T13:45:01;3.67;;;3.38;;
67065;SDS011;53978;43.846;25.952;2023-07-31T13:47:27;5.65;;;3.78;;
67065;SDS011;53978;43.846;25.952;2023-07-31T13:49:52;10.23;;;3.60;;
67065;SDS011;53978;43.846;25.952;2023-07-31T13:52:17;7.25;;;3.80;;
67065;SDS011;53978;43.846;25.952;2023-07-31T13:54:43;5.22;;;3.80;;
67065;SDS011;53978;43.846;25.952;2023-07-31T13:57:08;8.50;;;4.00;;
67065;SDS011;53978;43.846;25.952;2023-07-31T13:59:34;8.45;;;4.20;;
67065;SDS011;53978;43.846;25.952;2023-07-31T14:01:59;10.00;;;4.25;;
67065;SDS011;53978;43.846;25.952;2023-07-31T14:04:24;10.23;;;4.07;;
67065;SDS011;53978;43.846;25.952;2023-07-31T14:06:51;10.82;;;4.40;;
67065;SDS011;53978;43.846;25.952;2023-07-31T14:09:16;6.88;;;3.85;;
67065;SDS011;53978;43.846;25.952;2023-07-31T14:11:42;3.90;;;3.50;;
67065;SDS011;53978;43.846;25.952;2023-07-31T14:14:11;4.95;;;3.80;;
67065;SDS011;53978;43.846;25.952;2023-07-31T14:16:37;5.07;;;3.90;;
67065;SDS011;53978;43.846;25.952;2023-07-31T14:19:02;7.47;;;4.03;;
67065;SDS011;53978;43.846;25.952;2023-07-31T14:21:28;8.82;;;4.03;;
67065;SDS011;53978;43.846;25.952;2023-07-31T14:23:53;4.72;;;4.13;;
67065;SDS011;53978;43.846;25.952;2023-07-31T14:26:18;4.43;;;4.00;;
67065;SDS011;53978;43.846;25.952;2023-07-31T14:28:44;5.70;;;4.20;;
67065;SDS011;53978;43.846;25.952;2023-07-31T14:31:09;4.50;;;4.00;;
67065;SDS011;53978;43.846;25.952;2023-07-31T14:33:35;4.47;;;4.07;;
67065;SDS011;53978;43.846;25.952;2023-07-31T14:36:00;4.53;;;4.10;;
67065;SDS011;53978;43.846;25.952;2023-07-31T14:38:26;6.03;;;4.35;;